Time;durP1;ratioP1;P1;durP2;ratioP2;P2;SDS_P1;SDS_P2;PMS_P1;PMS_P2;Temp;Humidity;BMP_temperature;BMP_pressure;BME280_temperature;BME280_humidity;BME280_pressure;Samples;Min_cycle;Max_cycle;Signal;HPM_P1;HPM_P2
2021/08/17 00:00:42;;;;;;;1.00;0.90;;;20.30;79.40;;;;;;10528607;28;20793;-57
2021/08/17 00:06:07;;;;;;;1.40;0.90;;;20.30;79.40;;;;;;10537149;28;20211;-57
2021/08/17 00:11:29;;;;;;;1.00;0.80;;;20.30;79.40;;;;;;10512209;28;20567;-58
2021/08/17 00:16:51;;;;;;;1.90;0.87;;;20.40;79.50;;;;;;10536969;28;20223;-59
2021/08/17 00:22:15;;;;;;;0.70;0.67;;;20.30;79.40;;;;;;10532325;28;20215;-58
2021/08/17 00:27:37;;;;;;;0.83;0.80;;;20.30;79.40;;;;;;10499413;28;20212;-58
2021/08/17 00:32:59;;;;;;;2.47;0.80;;;20.30;79.40;;;;;;10535629;28;20594;-59
2021/08/17 00:38:23;;;;;;;1.30;0.87;;;20.30;79.50;;;;;;10528230;28;20192;-57
2021/08/17 00:43:45;;;;;;;0.80;0.70;;;20.30;79.50;;;;;;10495765;28;20220;-58
2021/08/17 00:49:07;;;;;;;1.50;0.70;;;20.30;79.50;;;;;;10494014;28;20219;-58
2021/08/17 00:54:31;;;;;;;1.03;0.80;;;20.30;79.50;;;;;;10501339;28;20220;-58
2021/08/17 00:59:53;;;;;;;2.00;0.93;;;20.30;79.50;;;;;;10519845;28;20192;-58
2021/08/17 01:05:17;;;;;;;0.83;0.67;;;20.30;79.50;;;;;;10534223;28;20211;-58
2021/08/17 01:10:41;;;;;;;0.93;0.60;;;20.30;79.60;;;;;;10511617;28;20223;-58
2021/08/17 01:16:03;;;;;;;0.70;0.70;;;20.30;79.60;;;;;;10451533;28;20267;-54
2021/08/17 01:21:25;;;;;;;1.40;0.80;;;20.30;79.60;;;;;;10450904;28;20252;-58
2021/08/17 01:26:49;;;;;;;1.93;0.87;;;20.30;79.60;;;;;;10451578;28;20217;-56
2021/08/17 01:32:12;;;;;;;1.47;0.83;;;20.30;79.60;;;;;;10468943;28;20718;-55
2021/08/17 01:37:34;;;;;;;1.80;0.80;;;20.30;79.60;;;;;;10490081;28;20682;-57
2021/08/17 01:42:58;;;;;;;0.77;0.70;;;20.20;79.60;;;;;;10476949;28;20725;-56
2021/08/17 01:48:20;;;;;;;1.20;0.93;;;20.30;79.70;;;;;;10494703;28;20227;-57
2021/08/17 01:53:42;;;;;;;2.47;1.00;;;20.20;79.60;;;;;;10513942;28;20218;-58
2021/08/17 01:59:05;;;;;;;2.20;0.93;;;20.20;79.60;;;;;;10520945;28;20263;-58
2021/08/17 02:04:28;;;;;;;1.27;0.80;;;20.20;79.60;;;;;;10501958;28;20216;-57
2021/08/17 02:09:50;;;;;;;0.87;0.73;;;20.20;79.60;;;;;;10499749;28;20208;-55
2021/08/17 02:15:14;;;;;;;1.80;1.00;;;20.20;79.60;;;;;;10500446;28;20207;-58
2021/08/17 02:20:36;;;;;;;1.30;0.87;;;20.20;80.30;;;;;;10500752;28;20231;-58
2021/08/17 02:25:58;;;;;;;1.23;0.80;;;20.20;79.70;;;;;;10499458;28;20219;-58
2021/08/17 02:31:22;;;;;;;1.30;1.03;;;20.20;79.60;;;;;;10500595;28;20221;-58
2021/08/17 02:36:44;;;;;;;1.27;0.80;;;20.20;79.70;;;;;;10498459;28;20204;-58
2021/08/17 02:42:06;;;;;;;2.50;0.93;;;20.20;79.70;;;;;;10501213;28;20216;-55
2021/08/17 02:47:30;;;;;;;1.80;1.00;;;20.20;79.70;;;;;;10500959;28;20717;-58
2021/08/17 02:52:52;;;;;;;2.20;0.83;;;20.20;79.70;;;;;;10508671;28;20299;-58
2021/08/17 02:58:14;;;;;;;1.50;0.90;;;20.20;79.70;;;;;;10525670;28;20189;-58
2021/08/17 03:03:37;;;;;;;1.87;1.07;;;20.20;79.70;;;;;;10505099;28;20219;-57
2021/08/17 03:08:59;;;;;;;0.67;0.63;;;20.20;79.70;;;;;;10497842;28;20216;-57
2021/08/17 03:14:22;;;;;;;2.07;1.20;;;20.20;79.70;;;;;;10456026;28;20224;-56
2021/08/17 03:19:45;;;;;;;2.30;1.13;;;20.20;79.70;;;;;;10455247;28;20707;-58
2021/08/17 03:25:10;;;;;;;1.93;0.90;;;20.20;79.80;;;;;;10456911;28;20580;-55
2021/08/17 03:30:32;;;;;;;2.83;1.10;;;20.20;79.70;;;;;;10455450;28;20213;-58
2021/08/17 03:35:55;;;;;;;2.07;1.00;;;20.20;79.80;;;;;;10455770;28;20193;-58
2021/08/17 03:41:17;;;;;;;2.17;1.20;;;20.20;79.70;;;;;;10487312;28;20595;-59
2021/08/17 03:46:39;;;;;;;1.23;0.80;;;20.20;79.70;;;;;;10504169;28;20232;-59
2021/08/17 03:52:03;;;;;;;1.10;0.70;;;20.20;79.70;;;;;;10495792;28;20219;-59
2021/08/17 03:57:25;;;;;;;2.13;1.10;;;20.20;79.60;;;;;;10501536;28;20200;-59
2021/08/17 04:02:47;;;;;;;1.73;0.90;;;20.20;79.50;;;;;;10495816;28;20220;-58
2021/08/17 04:08:11;;;;;;;1.33;0.70;;;20.30;79.60;;;;;;10495942;28;20224;-56
2021/08/17 04:13:33;;;;;;;3.13;1.13;;;20.20;79.50;;;;;;10495593;28;20219;-59
2021/08/17 04:18:55;;;;;;;1.63;1.00;;;20.20;79.50;;;;;;10495000;28;20208;-59
2021/08/17 04:24:19;;;;;;;1.47;1.00;;;20.20;79.50;;;;;;10495284;28;20219;-59
2021/08/17 04:29:41;;;;;;;1.60;0.80;;;20.20;79.50;;;;;;10500572;28;20212;-58
2021/08/17 04:35:04;;;;;;;1.30;0.90;;;20.20;79.50;;;;;;10495712;28;20760;-58
2021/08/17 04:40:28;;;;;;;1.43;0.90;;;20.20;79.60;;;;;;10494201;28;20216;-58
2021/08/17 04:45:52;;;;;;;1.70;0.83;;;20.20;79.60;;;;;;10452053;28;20692;-55
2021/08/17 04:51:14;;;;;;;1.30;0.70;;;20.20;79.60;;;;;;10465275;28;20687;-58
2021/08/17 04:56:37;;;;;;;1.50;0.90;;;20.20;79.60;;;;;;10488872;28;20589;-55
2021/08/17 05:01:59;;;;;;;1.33;0.80;;;20.20;79.60;;;;;;10486655;28;20220;-57
2021/08/17 05:07:22;;;;;;;2.00;1.17;;;20.20;79.60;;;;;;10492803;28;20220;-56
2021/08/17 05:12:45;;;;;;;1.03;0.77;;;20.20;80.20;;;;;;10492436;28;20216;-56
2021/08/17 05:18:08;;;;;;;1.50;0.90;;;20.20;79.70;;;;;;10493626;28;20201;-58
2021/08/17 05:23:30;;;;;;;0.80;0.70;;;20.20;79.70;;;;;;10493687;28;20698;-58
2021/08/17 05:28:53;;;;;;;1.43;0.97;;;20.20;79.70;;;;;;10497301;28;20221;-59
2021/08/17 05:34:15;;;;;;;1.10;0.90;;;20.20;79.70;;;;;;10493178;28;20220;-57
2021/08/17 05:39:37;;;;;;;1.93;0.83;;;20.20;79.70;;;;;;10491692;28;20204;-58
2021/08/17 05:45:01;;;;;;;1.40;0.93;;;20.20;79.70;;;;;;10492518;28;20192;-57
2021/08/17 05:50:23;;;;;;;1.53;0.90;;;20.20;79.70;;;;;;10492020;28;20224;-58
2021/08/17 05:55:45;;;;;;;2.40;1.20;;;20.20;79.70;;;;;;10527810;28;20199;-58
2021/08/17 06:01:08;;;;;;;0.97;0.83;;;20.20;79.60;;;;;;10495443;28;20227;-58
2021/08/17 06:06:30;;;;;;;1.23;0.80;;;20.30;79.60;;;;;;10491749;28;20219;-58
2021/08/17 06:11:57;;;;;;;0.97;0.80;;;20.30;79.50;;;;;;10491832;28;20216;-56
2021/08/17 06:17:20;;;;;;;1.43;0.93;;;20.30;79.50;;;;;;10492632;28;20599;-56
2021/08/17 06:22:42;;;;;;;1.63;0.70;;;20.20;79.50;;;;;;10489254;28;20212;-58
2021/08/17 06:28:09;;;;;;;0.83;0.73;;;20.20;79.50;;;;;;10491250;28;20227;-56
2021/08/17 06:33:32;;;;;;;1.43;0.97;;;20.30;80.20;;;;;;10491878;28;20214;-55
2021/08/17 06:38:54;;;;;;;1.40;0.90;;;20.20;79.60;;;;;;10492912;28;20250;-57
2021/08/17 06:44:16;;;;;;;1.77;1.00;;;20.20;79.60;;;;;;10498119;28;20242;-57
2021/08/17 06:49:39;;;;;;;1.27;0.90;;;20.20;79.60;;;;;;10499805;28;20215;-57
2021/08/17 06:55:01;;;;;;;0.90;0.83;;;20.20;79.60;;;;;;10504733;28;20682;-57
2021/08/17 07:00:24;;;;;;;1.10;0.77;;;20.20;79.70;;;;;;10527855;28;20219;-57
2021/08/17 07:05:47;;;;;;;1.27;0.77;;;20.20;79.70;;;;;;10539169;28;20195;-58
2021/08/17 07:11:09;;;;;;;0.93;0.73;;;20.20;79.80;;;;;;10522406;28;20208;-58
2021/08/17 07:16:32;;;;;;;1.63;0.80;;;20.20;79.80;;;;;;10497524;28;20203;-58
2021/08/17 07:21:56;;;;;;;1.60;0.77;;;20.20;79.80;;;;;;10496861;28;20224;-58
2021/08/17 07:27:18;;;;;;;1.53;0.80;;;20.20;79.80;;;;;;10505501;28;20223;-57
2021/08/17 07:32:40;;;;;;;2.17;0.97;;;20.20;79.80;;;;;;10496846;28;20220;-58
2021/08/17 07:38:05;;;;;;;1.63;0.80;;;20.20;79.80;;;;;;10495579;28;20203;-58
2021/08/17 07:43:27;;;;;;;1.00;0.87;;;20.20;79.90;;;;;;10537651;28;20270;-58
2021/08/17 07:48:49;;;;;;;0.93;0.70;;;20.20;79.80;;;;;;10537877;28;20586;-58
2021/08/17 07:54:13;;;;;;;1.03;0.70;;;20.20;79.80;;;;;;10537074;28;20585;-56
2021/08/17 07:59:35;;;;;;;1.17;0.77;;;20.20;79.90;;;;;;10512585;28;20192;-58
2021/08/17 08:04:57;;;;;;;1.57;1.00;;;20.10;79.80;;;;;;10497914;28;20200;-56
2021/08/17 08:10:21;;;;;;;1.03;0.73;;;20.10;79.80;;;;;;10495916;28;20235;-58
2021/08/17 08:15:43;;;;;;;2.20;0.90;;;20.10;79.80;;;;;;10494959;28;20556;-55
2021/08/17 08:21:05;;;;;;;1.00;0.60;;;20.10;79.80;;;;;;10487498;28;20251;-57
2021/08/17 08:26:28;;;;;;;1.63;0.90;;;20.10;79.80;;;;;;10500615;28;20207;-57
2021/08/17 08:31:50;;;;;;;1.67;0.90;;;20.10;79.80;;;;;;10494521;28;20718;-58
2021/08/17 08:37:13;;;;;;;1.70;1.00;;;20.10;79.80;;;;;;10495253;28;20192;-57
2021/08/17 08:42:36;;;;;;;1.20;0.90;;;20.10;80.40;;;;;;10493851;28;20224;-57
2021/08/17 08:47:59;;;;;;;1.53;1.00;;;20.10;80.30;;;;;;10514505;28;20212;-58
2021/08/17 08:53:21;;;;;;;1.10;0.90;;;20.10;79.80;;;;;;10521231;28;20220;-58
2021/08/17 08:58:44;;;;;;;1.33;0.80;;;20.10;79.80;;;;;;10509744;28;20196;-58
2021/08/17 09:04:06;;;;;;;1.13;0.90;;;20.10;79.80;;;;;;10514366;28;20227;-58
2021/08/17 09:09:29;;;;;;;1.20;0.80;;;20.10;79.80;;;;;;10493002;28;20231;-58
2021/08/17 09:15:13;;;;;;;2.27;0.80;;;20.10;79.80;;;;;;10494170;28;20196;-59
2021/08/17 09:20:40;;;;;;;0.80;0.80;;;20.10;79.70;;;;;;10492968;28;20223;-58
2021/08/17 09:26:20;;;;;;;2.03;1.30;;;20.10;79.80;;;;;;10493724;28;20203;-58
2021/08/17 09:31:45;;;;;;;1.67;1.03;;;20.20;79.90;;;;;;10492840;28;20602;-56
2021/08/17 09:37:11;;;;;;;0.87;0.80;;;20.20;79.90;;;;;;10493738;28;20189;-56
2021/08/17 09:42:35;;;;;;;1.33;0.80;;;20.10;79.80;;;;;;10493195;28;20294;-58
2021/08/17 09:47:58;;;;;;;1.00;0.70;;;20.10;79.80;;;;;;10491780;28;20213;-57
2021/08/17 09:53:22;;;;;;;0.77;0.70;;;20.10;79.80;;;;;;10492535;28;20216;-58
2021/08/17 09:58:49;;;;;;;1.60;1.03;;;20.10;79.80;;;;;;10508981;28;20188;-58
2021/08/17 10:04:15;;;;;;;1.17;0.70;;;20.10;79.80;;;;;;10521413;28;20215;-58
2021/08/17 10:09:39;;;;;;;1.30;0.80;;;20.10;79.80;;;;;;10492973;28;20223;-58
2021/08/17 10:15:01;;;;;;;1.33;0.77;;;20.10;79.80;;;;;;10497406;28;20203;-57
2021/08/17 10:20:26;;;;;;;1.23;0.87;;;20.10;79.80;;;;;;10499717;28;20228;-57
2021/08/17 10:25:50;;;;;;;1.40;1.00;;;20.10;79.90;;;;;;10499765;28;20211;-58
2021/08/17 10:31:27;;;;;;;1.93;1.17;;;20.10;79.90;;;;;;10508148;28;20283;-58
2021/08/17 10:36:55;;;;;;;1.57;0.90;;;20.10;79.80;;;;;;10539763;28;20324;-58
2021/08/17 10:42:24;;;;;;;1.40;0.90;;;20.10;80.40;;;;;;10539183;28;20698;-57
2021/08/17 10:47:46;;;;;;;1.20;0.87;;;20.10;79.90;;;;;;10540039;28;20222;-56
2021/08/17 10:53:43;;;;;;;1.43;0.90;;;20.10;79.90;;;;;;10527049;28;20216;-58
2021/08/17 10:59:07;;;;;;;1.20;0.97;;;20.10;79.70;;;;;;10518015;28;20188;-56
2021/08/17 11:04:37;;;;;;;1.33;0.80;;;20.10;79.90;;;;;;10523920;28;20219;-58
2021/08/17 11:10:02;;;;;;;1.83;1.10;;;20.10;79.80;;;;;;10455111;28;20220;-58
2021/08/17 11:15:26;;;;;;;1.27;1.07;;;20.10;79.80;;;;;;10475027;28;20196;-56
2021/08/17 11:20:57;;;;;;;1.10;0.83;;;20.10;79.80;;;;;;10456584;28;20640;-59
2021/08/17 11:26:30;;;;;;;1.33;0.83;;;20.10;79.80;;;;;;10455694;28;20683;-57
2021/08/17 11:31:55;;;;;;;1.00;0.90;;;20.10;79.80;;;;;;10456216;28;20213;-57
2021/08/17 11:37:18;;;;;;;0.80;0.80;;;20.10;79.90;;;;;;10456069;28;20208;-57
2021/08/17 11:42:41;;;;;;;0.93;0.80;;;20.10;79.90;;;;;;10455836;28;20224;-58
2021/08/17 11:48:05;;;;;;;1.07;0.77;;;20.10;79.90;;;;;;10454464;28;20209;-56
2021/08/17 11:53:27;;;;;;;1.17;0.90;;;20.10;79.90;;;;;;10469173;28;20602;-58
2021/08/17 11:58:53;;;;;;;0.80;0.77;;;20.10;79.90;;;;;;10512411;28;20188;-57
2021/08/17 12:04:16;;;;;;;1.47;1.00;;;20.10;79.90;;;;;;10524170;28;20211;-56
2021/08/17 12:09:39;;;;;;;1.07;0.93;;;20.10;79.90;;;;;;10495429;28;20219;-58
2021/08/17 12:15:09;;;;;;;1.30;1.10;;;20.10;79.90;;;;;;10496800;28;20192;-59
2021/08/17 12:20:34;;;;;;;1.90;1.03;;;20.10;79.90;;;;;;10491748;28;20303;-57
2021/08/17 12:25:57;;;;;;;1.27;0.90;;;20.10;79.90;;;;;;10503807;28;20192;-58
2021/08/17 12:31:26;;;;;;;1.50;1.07;;;20.10;79.90;;;;;;10494572;28;20243;-57
2021/08/17 12:36:52;;;;;;;1.17;1.00;;;20.10;79.90;;;;;;10493562;28;20200;-59
2021/08/17 12:42:18;;;;;;;1.10;0.90;;;20.10;79.90;;;;;;10493623;28;20220;-60
2021/08/17 12:47:40;;;;;;;1.30;1.10;;;20.10;79.90;;;;;;10494806;28;20722;-60
2021/08/17 12:53:05;;;;;;;1.37;1.10;;;20.10;79.90;;;;;;10505143;28;20207;-60
2021/08/17 12:58:27;;;;;;;1.57;1.10;;;20.10;79.90;;;;;;10520713;28;20706;-60
2021/08/17 13:03:49;;;;;;;2.23;1.30;;;20.10;79.90;;;;;;10493918;28;20703;-59
2021/08/17 13:09:12;;;;;;;1.10;1.00;;;20.10;79.90;;;;;;10497430;28;20212;-59
2021/08/17 13:14:35;;;;;;;1.37;1.07;;;20.00;79.90;;;;;;10476094;28;20216;-59
2021/08/17 13:19:57;;;;;;;2.27;1.20;;;20.00;79.90;;;;;;10534012;28;20200;-59
2021/08/17 13:25:21;;;;;;;1.40;1.10;;;20.00;79.90;;;;;;10534620;28;20577;-59
2021/08/17 13:30:43;;;;;;;1.53;1.10;;;20.00;79.90;;;;;;10533185;28;20291;-59
2021/08/17 13:36:05;;;;;;;1.90;1.20;;;20.00;79.90;;;;;;10533624;28;20199;-59
2021/08/17 13:41:29;;;;;;;1.50;1.13;;;20.00;79.90;;;;;;10533772;28;20219;-58
2021/08/17 13:46:51;;;;;;;1.53;1.17;;;20.00;79.90;;;;;;10532974;28;20203;-59
2021/08/17 13:52:14;;;;;;;2.13;1.27;;;20.00;79.90;;;;;;10535622;28;20212;-60
2021/08/17 13:57:38;;;;;;;1.33;1.23;;;20.00;80.00;;;;;;10509139;28;20670;-59
2021/08/17 14:03:00;;;;;;;1.40;1.30;;;20.00;79.90;;;;;;10513314;28;20219;-58
2021/08/17 14:08:22;;;;;;;1.50;1.23;;;20.00;79.90;;;;;;10500905;28;20208;-59
2021/08/17 14:13:46;;;;;;;1.30;1.20;;;20.00;79.90;;;;;;10464498;28;20217;-58
2021/08/17 14:19:08;;;;;;;2.40;1.60;;;20.00;79.90;;;;;;10459034;28;20259;-59
2021/08/17 14:24:31;;;;;;;1.23;1.10;;;20.00;79.90;;;;;;10458566;28;20220;-58
2021/08/17 14:29:54;;;;;;;1.60;1.50;;;20.00;80.00;;;;;;10505718;28;20231;-55
2021/08/17 14:35:16;;;;;;;1.80;1.30;;;20.00;79.90;;;;;;10540458;28;20196;-57
2021/08/17 14:40:39;;;;;;;1.67;1.50;;;20.00;80.00;;;;;;10541332;28;20220;-56
2021/08/17 14:46:02;;;;;;;1.63;1.37;;;20.00;80.00;;;;;;10540346;28;20196;-55
2021/08/17 14:51:26;;;;;;;1.60;1.50;;;20.00;80.00;;;;;;10540036;28;20729;-57
2021/08/17 14:56:48;;;;;;;2.40;1.53;;;20.00;80.00;;;;;;10457281;28;20680;-57
2021/08/17 15:02:11;;;;;;;1.40;1.30;;;20.00;80.10;;;;;;10499416;28;20220;-57
2021/08/17 15:07:34;;;;;;;1.60;1.50;;;20.00;80.00;;;;;;10500040;28;20219;-58
2021/08/17 15:12:56;;;;;;;1.77;1.53;;;20.00;80.00;;;;;;10496717;28;20209;-59
2021/08/17 15:18:20;;;;;;;2.83;1.60;;;20.00;80.00;;;;;;10503040;28;20709;-58
2021/08/17 15:23:42;;;;;;;1.60;1.50;;;20.00;80.00;;;;;;10496858;28;20216;-58
2021/08/17 15:29:04;;;;;;;1.40;1.23;;;20.00;80.00;;;;;;10496833;28;20280;-58
2021/08/17 15:34:28;;;;;;;2.40;1.47;;;20.00;80.00;;;;;;10496149;28;20210;-58
2021/08/17 15:39:51;;;;;;;2.17;1.70;;;20.00;80.00;;;;;;10496662;28;20197;-56
2021/08/17 15:45:15;;;;;;;1.93;1.73;;;20.00;80.00;;;;;;10496975;28;20273;-59
2021/08/17 15:50:39;;;;;;;1.73;1.63;;;20.00;80.00;;;;;;10496542;28;20223;-58
2021/08/17 15:56:01;;;;;;;1.87;1.63;;;20.00;80.00;;;;;;10533590;28;20192;-58
2021/08/17 16:01:23;;;;;;;2.23;1.83;;;20.00;80.00;;;;;;10492256;28;20220;-56
2021/08/17 16:06:47;;;;;;;2.30;2.10;;;20.00;80.00;;;;;;10502309;28;20204;-57
2021/08/17 16:12:09;;;;;;;2.43;1.87;;;20.00;80.00;;;;;;10495261;28;20231;-59
2021/08/17 16:17:31;;;;;;;1.67;1.57;;;20.00;80.00;;;;;;10495541;28;20204;-58
2021/08/17 16:22:56;;;;;;;2.23;1.73;;;20.00;80.00;;;;;;10495352;28;20212;-57
2021/08/17 16:28:18;;;;;;;2.27;2.03;;;20.10;80.00;;;;;;10496677;28;20208;-57
2021/08/17 16:33:40;;;;;;;2.47;2.10;;;20.10;80.00;;;;;;10497219;28;20223;-58
2021/08/17 16:39:04;;;;;;;3.10;1.80;;;20.10;79.90;;;;;;10496704;28;20197;-57
2021/08/17 16:44:26;;;;;;;2.10;1.80;;;20.00;79.90;;;;;;10494316;28;20212;-58
2021/08/17 16:49:48;;;;;;;2.10;1.53;;;20.10;79.90;;;;;;10494612;28;20212;-59
2021/08/17 16:55:13;;;;;;;2.87;2.00;;;20.10;79.90;;;;;;10524631;28;20195;-59
2021/08/17 17:00:35;;;;;;;3.10;2.33;;;20.00;79.90;;;;;;10502379;28;20227;-59
2021/08/17 17:05:57;;;;;;;1.97;1.50;;;20.10;80.00;;;;;;10526692;28;20191;-58
2021/08/17 17:11:21;;;;;;;2.60;1.73;;;20.10;80.00;;;;;;10517188;28;20212;-58
2021/08/17 17:16:43;;;;;;;2.73;2.23;;;20.00;80.00;;;;;;10488537;28;20204;-58
2021/08/17 17:22:06;;;;;;;1.90;1.70;;;20.00;80.00;;;;;;10513606;28;20204;-55
2021/08/17 17:27:30;;;;;;;2.30;2.10;;;20.00;80.00;;;;;;10533352;28;20600;-57
2021/08/17 17:32:52;;;;;;;2.67;2.17;;;20.00;80.10;;;;;;10533054;28;20218;-58
2021/08/17 17:38:14;;;;;;;1.93;1.67;;;20.00;80.00;;;;;;10534099;28;20199;-56
2021/08/17 17:43:37;;;;;;;3.03;2.40;;;20.00;80.10;;;;;;10533995;28;20211;-56
2021/08/17 17:48:59;;;;;;;2.47;2.20;;;20.00;80.10;;;;;;10532850;28;20219;-58
2021/08/17 17:54:21;;;;;;;2.10;1.90;;;20.00;80.10;;;;;;10510750;28;20694;-58
2021/08/17 17:59:45;;;;;;;2.20;2.00;;;20.00;80.10;;;;;;10517343;28;20184;-58
2021/08/17 18:05:09;;;;;;;2.37;1.83;;;20.00;80.10;;;;;;10500170;28;20196;-58
2021/08/17 18:10:34;;;;;;;2.50;2.20;;;20.00;80.10;;;;;;10491438;28;20216;-59
2021/08/17 18:15:58;;;;;;;2.17;1.90;;;20.00;80.10;;;;;;10487906;28;20203;-58
2021/08/17 18:21:20;;;;;;;2.97;2.30;;;20.00;80.10;;;;;;10520337;28;20227;-59
2021/08/17 18:26:42;;;;;;;3.50;2.33;;;20.00;80.10;;;;;;10505630;28;20203;-59
2021/08/17 18:32:08;;;;;;;2.30;2.03;;;20.00;80.10;;;;;;10449622;28;20688;-58
2021/08/17 18:37:35;;;;;;;2.30;2.10;;;20.00;80.10;;;;;;10489453;28;20208;-58
2021/08/17 18:42:57;;;;;;;2.30;2.10;;;20.00;80.10;;;;;;10497666;28;20212;-55
2021/08/17 18:48:21;;;;;;;2.83;2.37;;;20.00;80.10;;;;;;10498917;28;20204;-56
2021/08/17 18:53:43;;;;;;;2.27;1.87;;;20.00;80.10;;;;;;10516594;28;20215;-58
2021/08/17 18:59:05;;;;;;;2.97;2.30;;;20.00;80.10;;;;;;10519415;28;20193;-56
2021/08/17 19:04:29;;;;;;;2.30;2.10;;;19.90;80.00;;;;;;10496381;28;20590;-57
2021/08/17 19:09:52;;;;;;;2.67;2.30;;;20.00;80.10;;;;;;10461941;28;20219;-59
2021/08/17 19:15:16;;;;;;;2.43;2.03;;;20.00;80.10;;;;;;10497704;28;20303;-59
2021/08/17 19:20:41;;;;;;;2.43;2.10;;;20.00;80.10;;;;;;10501114;28;20227;-58
2021/08/17 19:26:03;;;;;;;2.20;2.00;;;20.00;80.10;;;;;;10458978;28;20192;-59
2021/08/17 19:31:25;;;;;;;2.83;2.13;;;20.00;80.10;;;;;;10493806;28;20228;-59
2021/08/17 19:36:48;;;;;;;2.93;2.30;;;20.00;80.10;;;;;;10490254;28;20201;-59
2021/08/17 19:42:12;;;;;;;2.37;2.17;;;20.00;80.20;;;;;;10503426;28;20219;-59
2021/08/17 19:47:34;;;;;;;2.47;2.27;;;20.00;80.20;;;;;;10539034;28;20199;-58
2021/08/17 19:52:58;;;;;;;2.70;2.17;;;20.00;80.20;;;;;;10536238;28;20582;-57
2021/08/17 19:58:21;;;;;;;3.20;2.47;;;20.00;80.20;;;;;;10521022;28;20219;-58
2021/08/17 20:03:43;;;;;;;2.20;2.00;;;20.00;80.20;;;;;;10502937;28;20231;-57
2021/08/17 20:09:07;;;;;;;2.33;1.97;;;20.00;80.20;;;;;;10495868;28;20710;-55
2021/08/17 20:14:29;;;;;;;2.83;2.40;;;20.00;80.20;;;;;;10454270;28;20208;-56
2021/08/17 20:19:51;;;;;;;2.30;2.10;;;20.00;80.80;;;;;;10452438;28;20205;-58
2021/08/17 20:25:15;;;;;;;2.60;2.33;;;20.00;80.20;;;;;;10451936;28;20201;-57
2021/08/17 20:30:38;;;;;;;2.27;2.00;;;20.00;80.30;;;;;;10453403;28;20221;-58
2021/08/17 20:36:00;;;;;;;2.50;2.30;;;20.00;80.30;;;;;;10454335;28;20201;-59
2021/08/17 20:41:24;;;;;;;2.40;2.20;;;20.00;80.30;;;;;;10462061;28;20591;-59
2021/08/17 20:46:46;;;;;;;2.77;2.27;;;20.00;80.30;;;;;;10535088;28;20578;-59
2021/08/17 20:52:08;;;;;;;2.07;1.87;;;20.00;80.20;;;;;;10529905;28;20216;-59
2021/08/17 20:57:32;;;;;;;2.30;2.10;;;20.00;80.80;;;;;;10499680;28;20203;-59
2021/08/17 21:02:54;;;;;;;2.60;2.10;;;20.00;80.30;;;;;;10534598;28;20286;-59
2021/08/17 21:08:17;;;;;;;2.40;2.20;;;20.00;80.30;;;;;;10534320;28;20202;-60
2021/08/17 21:13:41;;;;;;;2.30;2.10;;;20.00;80.30;;;;;;10498177;28;20247;-59
2021/08/17 21:19:04;;;;;;;2.17;1.97;;;20.00;80.30;;;;;;10493797;28;20207;-56
2021/08/17 21:24:26;;;;;;;2.30;2.10;;;20.00;80.30;;;;;;10495932;28;20223;-58
2021/08/17 21:29:50;;;;;;;2.47;2.10;;;20.00;80.30;;;;;;10533161;28;20613;-58
2021/08/17 21:35:12;;;;;;;2.63;1.90;;;20.00;80.30;;;;;;10497702;28;20204;-58
2021/08/17 21:40:35;;;;;;;2.40;2.00;;;19.90;80.20;;;;;;10491182;28;20209;-59
2021/08/17 21:46:00;;;;;;;2.43;2.10;;;20.00;80.40;;;;;;10492974;28;20197;-58
2021/08/17 21:51:22;;;;;;;1.90;1.60;;;20.00;80.30;;;;;;10492120;28;20227;-59
2021/08/17 21:56:44;;;;;;;1.70;1.60;;;20.00;80.30;;;;;;10451820;28;20193;-58
2021/08/17 22:02:08;;;;;;;2.33;2.13;;;20.00;80.30;;;;;;10451412;28;20212;-59
2021/08/17 22:07:31;;;;;;;2.07;1.87;;;20.00;80.30;;;;;;10450999;28;20236;-59
2021/08/17 22:12:54;;;;;;;1.80;1.70;;;20.00;80.30;;;;;;10488675;28;20216;-57
2021/08/17 22:18:17;;;;;;;2.17;1.97;;;19.90;80.30;;;;;;10499082;28;20202;-59
2021/08/17 22:23:40;;;;;;;2.20;2.00;;;20.00;80.30;;;;;;10500053;28;20223;-59
2021/08/17 22:29:02;;;;;;;2.40;2.10;;;20.00;80.30;;;;;;10499603;28;20201;-58
2021/08/17 22:34:25;;;;;;;2.10;1.87;;;19.90;80.30;;;;;;10499724;28;20216;-59
2021/08/17 22:39:47;;;;;;;2.00;1.80;;;19.90;80.30;;;;;;10506608;28;20203;-59
2021/08/17 22:45:11;;;;;;;2.37;2.17;;;19.90;80.20;;;;;;10540835;28;20204;-58
2021/08/17 22:50:34;;;;;;;2.10;1.90;;;19.90;80.20;;;;;;10539008;28;20231;-58
2021/08/17 22:55:56;;;;;;;1.67;1.57;;;19.90;80.30;;;;;;10495698;28;20201;-59
2021/08/17 23:01:19;;;;;;;2.13;1.93;;;19.90;80.20;;;;;;10534983;28;20325;-58
2021/08/17 23:06:42;;;;;;;1.87;1.67;;;19.90;80.30;;;;;;10530242;28;20196;-58
2021/08/17 23:12:06;;;;;;;1.83;1.63;;;19.90;80.30;;;;;;10515545;28;20220;-58
2021/08/17 23:17:29;;;;;;;2.07;1.87;;;19.90;80.30;;;;;;10497922;28;20208;-59
2021/08/17 23:22:52;;;;;;;2.27;1.97;;;19.90;80.30;;;;;;10489507;28;20216;-59
2021/08/17 23:28:14;;;;;;;2.00;1.70;;;19.90;80.30;;;;;;10497545;28;20192;-59
2021/08/17 23:33:36;;;;;;;1.70;1.57;;;19.90;80.30;;;;;;10496725;28;20246;-59
2021/08/17 23:39:00;;;;;;;2.07;1.87;;;19.90;80.30;;;;;;10537030;28;20592;-59
2021/08/17 23:44:22;;;;;;;2.20;2.00;;;19.90;80.30;;;;;;10537566;28;20238;-59
2021/08/17 23:49:44;;;;;;;2.00;1.80;;;19.90;80.30;;;;;;10537493;28;20839;-59
2021/08/17 23:55:09;;;;;;;1.97;1.77;;;19.90;80.30;;;;;;10515041;28;20210;-59
